Time;durP1;ratioP1;P1;durP2;ratioP2;P2;SDS_P1;SDS_P2;PMS_P1;PMS_P2;Temp;Humidity;BMP_temperature;BMP_pressure;BME280_temperature;BME280_humidity;BME280_pressure;Samples;Min_cycle;Max_cycle;Signal;HPM_P1;HPM_P2
2023/07/21 00:01:57;;;;;;;4.23;1.37;;;;;;;;;;4969491;28;20312;-67
2023/07/21 00:04:24;;;;;;;3.23;1.37;;;;;;;;;;4969622;28;20194;-66
2023/07/21 00:06:51;;;;;;;3.27;1.33;;;;;;;;;;4969124;28;20190;-66
2023/07/21 00:09:35;;;;;;;4.20;1.60;;;;;;;;;;4969812;28;20173;-66
2023/07/21 00:12:03;;;;;;;4.07;1.40;;;;;;;;;;4969232;28;20193;-66
2023/07/21 00:14:47;;;;;;;3.20;1.30;;;;;;;;;;4969340;28;20629;-66
2023/07/21 00:17:15;;;;;;;3.47;1.17;;;;;;;;;;4969416;28;20209;-66
2023/07/21 00:19:44;;;;;;;3.20;1.33;;;;;;;;;;4972057;28;20299;-67
2023/07/21 00:22:11;;;;;;;3.97;1.27;;;;;;;;;;4956141;28;20798;-66
2023/07/21 00:24:38;;;;;;;4.73;1.40;;;;;;;;;;4973373;28;20185;-66
2023/07/21 00:27:05;;;;;;;4.60;1.60;;;;;;;;;;4972998;28;20185;-66
2023/07/21 00:29:32;;;;;;;2.73;1.30;;;;;;;;;;4973017;28;20188;-66
2023/07/21 00:32:01;;;;;;;2.47;1.43;;;;;;;;;;4973328;28;20200;-66
2023/07/21 00:34:28;;;;;;;3.80;1.30;;;;;;;;;;4956217;28;20220;-66
2023/07/21 00:36:55;;;;;;;4.83;1.77;;;;;;;;;;4973311;28;20213;-66
2023/07/21 00:39:22;;;;;;;2.50;1.20;;;;;;;;;;4955628;28;20281;-66
2023/07/21 00:42:06;;;;;;;4.50;1.70;;;;;;;;;;4955404;28;20181;-66
2023/07/21 00:44:36;;;;;;;4.53;1.50;;;;;;;;;;4972858;28;20225;-66
2023/07/21 00:47:04;;;;;;;5.13;1.50;;;;;;;;;;4955590;28;20198;-66
2023/07/21 00:49:32;;;;;;;5.83;1.40;;;;;;;;;;4973179;28;20213;-66
2023/07/21 00:51:59;;;;;;;2.53;1.50;;;;;;;;;;4955763;28;20683;-66
2023/07/21 01:27:04;;;;;;;4.00;1.30;;;;;;;;;;4971056;28;20264;-66
2023/07/21 01:29:31;;;;;;;3.27;1.57;;;;;;;;;;4955083;28;20193;-66
2023/07/21 01:31:59;;;;;;;4.93;1.97;;;;;;;;;;4972668;28;20600;-66
2023/07/21 01:34:27;;;;;;;6.10;1.57;;;;;;;;;;4955313;28;20217;-66
2023/07/21 01:37:11;;;;;;;4.13;1.63;;;;;;;;;;4957905;28;20217;-66
2023/07/21 01:39:38;;;;;;;6.67;2.03;;;;;;;;;;4972332;28;20217;-66
2023/07/21 01:42:05;;;;;;;5.53;1.70;;;;;;;;;;4938664;28;20244;-66
2023/07/21 01:44:32;;;;;;;4.27;1.40;;;;;;;;;;4971836;28;20921;-66
2023/07/21 01:46:59;;;;;;;3.53;1.70;;;;;;;;;;4954691;28;20212;-66
2023/07/21 01:49:26;;;;;;;3.43;1.47;;;;;;;;;;4954444;28;20281;-66
2023/07/21 01:51:57;;;;;;;3.80;1.40;;;;;;;;;;4954763;28;20204;-66
2023/07/21 01:54:50;;;;;;;3.30;1.80;;;;;;;;;;4971516;28;20240;-66
2023/07/21 01:57:35;;;;;;;4.13;1.37;;;;;;;;;;4939824;28;20221;-66
2023/07/21 02:00:04;;;;;;;3.73;1.50;;;;;;;;;;4938005;28;20190;-66
2023/07/21 02:02:49;;;;;;;3.97;1.70;;;;;;;;;;4971665;28;20170;-66
2023/07/21 02:05:17;;;;;;;2.83;1.30;;;;;;;;;;4971770;28;20182;-66
2023/07/21 02:08:01;;;;;;;5.37;1.53;;;;;;;;;;4940562;28;20182;-66
2023/07/21 02:10:28;;;;;;;2.77;1.33;;;;;;;;;;4954305;28;20196;-66
2023/07/21 02:13:13;;;;;;;3.70;1.60;;;;;;;;;;4954060;28;20206;-66
2023/07/21 02:15:40;;;;;;;4.67;1.40;;;;;;;;;;4953878;28;20215;-66
2023/07/21 02:18:25;;;;;;;3.93;1.40;;;;;;;;;;4971051;28;20173;-66
2023/07/21 02:20:51;;;;;;;3.43;1.50;;;;;;;;;;4954168;28;20249;-67
2023/07/21 02:23:36;;;;;;;4.80;1.50;;;;;;;;;;4971374;28;20178;-66
2023/07/21 02:26:02;;;;;;;4.30;1.47;;;;;;;;;;4970629;28;21050;-66
2023/07/21 02:28:46;;;;;;;3.70;1.50;;;;;;;;;;4954120;28;20210;-66
2023/07/21 02:31:13;;;;;;;5.20;1.90;;;;;;;;;;4953855;28;20201;-66
2023/07/21 02:33:40;;;;;;;5.40;1.87;;;;;;;;;;4953698;28;20201;-66
2023/07/21 02:36:07;;;;;;;3.40;1.80;;;;;;;;;;4970919;28;20197;-66
2023/07/21 02:38:34;;;;;;;2.97;1.30;;;;;;;;;;4953668;28;20204;-66
2023/07/21 02:41:18;;;;;;;3.83;1.70;;;;;;;;;;4952795;28;20188;-66
2023/07/21 02:43:45;;;;;;;3.20;1.73;;;;;;;;;;4953377;28;20238;-66
2023/07/21 02:46:13;;;;;;;5.97;1.57;;;;;;;;;;4953506;28;20304;-66
2023/07/21 02:48:39;;;;;;;2.63;1.60;;;;;;;;;;4970639;28;20194;-66
2023/07/21 02:51:06;;;;;;;2.50;1.47;;;;;;;;;;4970131;28;20201;-66
2023/07/21 02:53:40;;;;;;;2.23;1.37;;;;;;;;;;4953254;28;20291;-66
2023/07/21 02:56:07;;;;;;;4.80;1.63;;;;;;;;;;4970229;28;20307;-66
2023/07/21 02:59:04;;;;;;;3.20;1.67;;;;;;;;;;4952749;28;20177;-66
2023/07/21 03:01:31;;;;;;;5.23;1.67;;;;;;;;;;4953325;28;20360;-66
2023/07/21 03:03:58;;;;;;;3.50;1.67;;;;;;;;;;4953319;28;20197;-66
2023/07/21 03:06:25;;;;;;;2.33;1.50;;;;;;;;;;4970065;28;20200;-66
2023/07/21 03:08:55;;;;;;;7.03;1.80;;;;;;;;;;4937754;28;20194;-66
2023/07/21 03:11:39;;;;;;;3.17;1.50;;;;;;;;;;4955739;28;20295;-66
2023/07/21 03:14:12;;;;;;;6.23;2.10;;;;;;;;;;4953165;28;20251;-66
2023/07/21 03:16:56;;;;;;;3.70;1.50;;;;;;;;;;4970782;28;20197;-66
2023/07/21 03:19:23;;;;;;;3.40;1.60;;;;;;;;;;4968939;28;20692;-66
2023/07/21 03:22:16;;;;;;;4.30;1.70;;;;;;;;;;4952940;28;20657;-66
2023/07/21 03:24:45;;;;;;;3.13;1.53;;;;;;;;;;4952715;28;20200;-66
2023/07/21 03:27:29;;;;;;;3.80;1.63;;;;;;;;;;4952545;28;20183;-66
2023/07/21 03:29:56;;;;;;;4.70;1.60;;;;;;;;;;4970219;28;20200;-66
2023/07/21 03:32:49;;;;;;;5.30;1.63;;;;;;;;;;4953028;28;20182;-66
2023/07/21 03:35:16;;;;;;;6.47;2.03;;;;;;;;;;4952590;28;20308;-66
2023/07/21 03:37:45;;;;;;;7.37;1.90;;;;;;;;;;4970103;28;20209;-66
2023/07/21 03:40:12;;;;;;;4.93;1.90;;;;;;;;;;4952638;28;20284;-66
2023/07/21 03:42:38;;;;;;;3.47;1.67;;;;;;;;;;4952506;28;20196;-66
2023/07/21 03:45:07;;;;;;;4.10;1.70;;;;;;;;;;4969725;28;20193;-66
2023/07/21 03:47:34;;;;;;;5.00;1.80;;;;;;;;;;4952809;28;20189;-66
2023/07/21 03:50:02;;;;;;;5.27;1.93;;;;;;;;;;4952106;28;20201;-66
2023/07/21 03:52:31;;;;;;;4.33;1.87;;;;;;;;;;4952796;28;20248;-66
2023/07/21 03:54:59;;;;;;;5.10;1.80;;;;;;;;;;4951962;28;20201;-66
2023/07/21 03:57:25;;;;;;;3.17;1.50;;;;;;;;;;4952034;28;20228;-66
2023/07/21 03:59:52;;;;;;;5.53;1.80;;;;;;;;;;4952365;28;20284;-66
2023/07/21 04:02:19;;;;;;;4.03;1.60;;;;;;;;;;4969835;28;20190;-66
2023/07/21 04:04:46;;;;;;;5.53;1.80;;;;;;;;;;4969989;28;20185;-66
2023/07/21 04:07:31;;;;;;;5.87;1.87;;;;;;;;;;4952657;28;20173;-66
2023/07/21 04:09:58;;;;;;;5.50;1.60;;;;;;;;;;4969657;28;20181;-66
2023/07/21 04:12:25;;;;;;;3.03;1.67;;;;;;;;;;4951978;28;20264;-66
2023/07/21 04:14:52;;;;;;;4.73;1.83;;;;;;;;;;4952242;28;20283;-66
2023/07/21 04:17:19;;;;;;;4.87;1.50;;;;;;;;;;4969133;28;20991;-66
2023/07/21 04:19:46;;;;;;;3.57;1.53;;;;;;;;;;4969376;28;20194;-66
2023/07/21 04:22:12;;;;;;;5.20;1.50;;;;;;;;;;4951936;28;20221;-66
2023/07/21 04:24:39;;;;;;;6.87;1.93;;;;;;;;;;4952015;28;20260;-65
2023/07/21 04:27:06;;;;;;;6.13;1.80;;;;;;;;;;4968995;28;20222;-66
2023/07/21 04:29:33;;;;;;;2.57;1.70;;;;;;;;;;4952004;28;20251;-66
2023/07/21 04:32:04;;;;;;;5.33;1.50;;;;;;;;;;4951636;28;20600;-66
2023/07/21 04:34:33;;;;;;;6.00;2.00;;;;;;;;;;4952523;28;20609;-66
2023/07/21 04:37:00;;;;;;;4.23;1.67;;;;;;;;;;4951857;28;20252;-66
2023/07/21 04:39:34;;;;;;;3.50;1.83;;;;;;;;;;4952316;28;20200;-66
2023/07/21 04:42:18;;;;;;;6.67;1.87;;;;;;;;;;4951884;28;20228;-66
2023/07/21 04:44:48;;;;;;;3.57;1.60;;;;;;;;;;4969157;28;20300;-66
2023/07/21 04:47:32;;;;;;;4.47;1.80;;;;;;;;;;4969803;28;20170;-66
2023/07/21 04:50:03;;;;;;;4.27;1.70;;;;;;;;;;4951648;28;20568;-66
2023/07/21 04:52:32;;;;;;;3.60;1.77;;;;;;;;;;4969483;28;20557;-66
2023/07/21 04:54:58;;;;;;;6.03;2.00;;;;;;;;;;4952128;28;20201;-66
2023/07/21 04:57:25;;;;;;;5.87;1.73;;;;;;;;;;4969118;28;20236;-65
2023/07/21 04:59:52;;;;;;;6.27;1.53;;;;;;;;;;4969187;28;20190;-65
2023/07/21 05:02:19;;;;;;;7.57;2.10;;;;;;;;;;4951854;28;20201;-66
2023/07/21 05:04:47;;;;;;;2.50;1.60;;;;;;;;;;4970587;28;20268;-66
2023/07/21 05:07:36;;;;;;;3.17;1.63;;;;;;;;;;4955557;28;20181;-74
2023/07/21 05:10:05;;;;;;;5.90;1.70;;;;;;;;;;4954721;28;20237;-66
2023/07/21 05:12:50;;;;;;;5.70;1.70;;;;;;;;;;4954921;28;20627;-66
2023/07/21 05:15:36;;;;;;;6.00;1.60;;;;;;;;;;4972587;28;20252;-66
2023/07/21 05:18:19;;;;;;;7.97;1.90;;;;;;;;;;4955023;28;21039;-66
2023/07/21 05:21:15;;;;;;;5.07;1.87;;;;;;;;;;4967549;28;20675;-68
2023/07/21 05:23:53;;;;;;;4.40;1.70;;;;;;;;;;4955235;28;20269;-68
2023/07/21 05:26:24;;;;;;;6.27;1.67;;;;;;;;;;4933262;28;20245;-68
2023/07/21 05:28:53;;;;;;;5.70;1.60;;;;;;;;;;4952292;28;20205;-68
2023/07/21 05:31:29;;;;;;;4.83;1.77;;;;;;;;;;4953062;28;20212;-71
2023/07/21 05:34:01;;;;;;;5.47;1.87;;;;;;;;;;4952920;28;20952;-69
2023/07/21 05:36:30;;;;;;;3.53;1.43;;;;;;;;;;4970764;28;20201;-70
2023/07/21 05:38:57;;;;;;;4.97;1.40;;;;;;;;;;4971051;28;20193;-69
2023/07/21 05:41:26;;;;;;;5.60;1.60;;;;;;;;;;4952229;28;20193;-72
2023/07/21 05:43:54;;;;;;;2.60;1.50;;;;;;;;;;4953609;28;20256;-70
2023/07/21 05:46:21;;;;;;;4.97;1.60;;;;;;;;;;4953031;28;21109;-71
2023/07/21 05:48:54;;;;;;;4.17;1.40;;;;;;;;;;4953226;28;20197;-69
2023/07/21 05:51:22;;;;;;;4.27;1.43;;;;;;;;;;4952670;28;20904;-68
2023/07/21 05:53:54;;;;;;;4.30;1.30;;;;;;;;;;4937983;28;20194;-68
2023/07/21 05:56:24;;;;;;;3.17;1.20;;;;;;;;;;4936458;28;20203;-67
2023/07/21 05:59:18;;;;;;;3.07;1.30;;;;;;;;;;4952335;28;20189;-67
2023/07/21 06:01:45;;;;;;;3.63;1.47;;;;;;;;;;4969630;28;20193;-67
2023/07/21 06:04:11;;;;;;;5.53;1.30;;;;;;;;;;4970134;28;20692;-67
2023/07/21 06:06:43;;;;;;;5.23;1.43;;;;;;;;;;4951964;28;20696;-67
2023/07/21 06:09:26;;;;;;;4.83;1.40;;;;;;;;;;4952791;28;20208;-67
2023/07/21 06:12:17;;;;;;;2.40;1.37;;;;;;;;;;4965830;28;20680;-67
2023/07/21 06:15:26;;;;;;;3.13;1.40;;;;;;;;;;4952021;28;20204;-68
2023/07/21 06:17:59;;;;;;;1.80;1.30;;;;;;;;;;4948401;29;20748;-69
2023/07/21 06:20:29;;;;;;;1.67;1.03;;;;;;;;;;4951863;28;20241;-69
2023/07/21 06:22:57;;;;;;;5.33;1.43;;;;;;;;;;4969768;28;20186;-69
2023/07/21 06:25:26;;;;;;;5.03;1.40;;;;;;;;;;4952370;28;20217;-69
2023/07/21 06:28:00;;;;;;;2.97;1.20;;;;;;;;;;4943138;28;20240;-67
2023/07/21 06:30:27;;;;;;;4.10;1.27;;;;;;;;;;4951794;28;20229;-68
2023/07/21 06:32:54;;;;;;;2.87;1.20;;;;;;;;;;4952169;28;20197;-69
2023/07/21 06:35:44;;;;;;;3.63;1.20;;;;;;;;;;4951918;28;20205;-68
2023/07/21 06:38:49;;;;;;;2.80;1.17;;;;;;;;;;4947414;28;20224;-68
2023/07/21 06:41:44;;;;;;;2.87;1.30;;;;;;;;;;4940242;28;20209;-69
2023/07/21 06:44:31;;;;;;;2.67;1.20;;;;;;;;;;4952053;28;20232;-68
2023/07/21 06:47:27;;;;;;;2.17;0.93;;;;;;;;;;4949612;28;20202;-68
2023/07/21 06:50:15;;;;;;;3.73;1.00;;;;;;;;;;4969196;28;20189;-68
2023/07/21 06:52:47;;;;;;;2.13;0.90;;;;;;;;;;4951697;28;20228;-68
2023/07/21 06:55:16;;;;;;;2.43;1.00;;;;;;;;;;4951638;28;20255;-68
2023/07/21 06:57:43;;;;;;;1.87;1.10;;;;;;;;;;4950877;28;20225;-68
2023/07/21 07:00:12;;;;;;;3.60;1.27;;;;;;;;;;4947966;29;20202;-69
2023/07/21 07:02:40;;;;;;;2.27;0.73;;;;;;;;;;4986966;28;20201;-67
2023/07/21 07:05:07;;;;;;;2.63;1.20;;;;;;;;;;4956989;28;20203;-68
2023/07/21 07:07:34;;;;;;;1.73;0.93;;;;;;;;;;4969542;28;20201;-68
2023/07/21 07:10:00;;;;;;;2.07;1.20;;;;;;;;;;4968297;28;20585;-69
2023/07/21 07:12:27;;;;;;;2.13;0.93;;;;;;;;;;4967683;28;20696;-70
2023/07/21 07:14:54;;;;;;;3.63;1.30;;;;;;;;;;4951456;28;20305;-70
2023/07/21 07:17:40;;;;;;;2.37;1.10;;;;;;;;;;4949444;29;20566;-70
2023/07/21 07:20:09;;;;;;;3.63;1.23;;;;;;;;;;4964623;28;20194;-69
2023/07/21 07:22:37;;;;;;;2.30;1.30;;;;;;;;;;4933110;29;20198;-72
2023/07/21 07:25:05;;;;;;;3.90;1.30;;;;;;;;;;4916504;29;20314;-70
2023/07/21 07:27:32;;;;;;;2.73;1.30;;;;;;;;;;4941295;28;20727;-68
2023/07/21 07:29:59;;;;;;;3.10;1.37;;;;;;;;;;4951615;28;20197;-69
2023/07/21 07:32:26;;;;;;;3.57;1.50;;;;;;;;;;4968134;28;20209;-70
2023/07/21 07:34:59;;;;;;;3.10;1.30;;;;;;;;;;4968975;28;20194;-67
2023/07/21 07:37:26;;;;;;;2.40;1.50;;;;;;;;;;4968596;28;20213;-68
2023/07/21 07:39:53;;;;;;;2.93;1.20;;;;;;;;;;4968510;28;20236;-68
2023/07/21 07:42:22;;;;;;;3.07;1.20;;;;;;;;;;4967197;28;20557;-74
2023/07/21 07:44:50;;;;;;;4.10;1.30;;;;;;;;;;4967670;28;20233;-69
2023/07/21 07:47:17;;;;;;;2.37;1.30;;;;;;;;;;4950217;28;20197;-70
2023/07/21 07:49:46;;;;;;;3.93;1.17;;;;;;;;;;4950009;28;20201;-67
2023/07/21 07:52:19;;;;;;;4.73;1.50;;;;;;;;;;4966962;28;20193;-68
2023/07/21 07:54:46;;;;;;;3.43;1.40;;;;;;;;;;4967204;28;20201;-68
2023/07/21 07:57:14;;;;;;;4.57;1.40;;;;;;;;;;4967183;28;20213;-71
2023/07/21 07:59:43;;;;;;;3.77;1.43;;;;;;;;;;4949755;28;20197;-71
2023/07/21 08:02:10;;;;;;;4.27;1.20;;;;;;;;;;4950500;28;20186;-71
2023/07/21 08:04:39;;;;;;;4.30;1.30;;;;;;;;;;4963330;28;20221;-71
2023/07/21 08:07:06;;;;;;;2.83;1.37;;;;;;;;;;4971989;28;20193;-69
2023/07/21 08:09:33;;;;;;;3.60;1.43;;;;;;;;;;4968422;28;20193;-74
2023/07/21 08:12:03;;;;;;;3.30;1.27;;;;;;;;;;4967112;28;20197;-68
2023/07/21 08:14:30;;;;;;;5.40;1.20;;;;;;;;;;4967756;28;20268;-73
2023/07/21 08:17:00;;;;;;;4.23;1.33;;;;;;;;;;4950401;28;20548;-69
2023/07/21 08:19:30;;;;;;;4.07;1.60;;;;;;;;;;4967949;28;20217;-71
2023/07/21 08:22:01;;;;;;;4.40;1.60;;;;;;;;;;4967369;28;20197;-69
2023/07/21 08:24:27;;;;;;;3.80;1.40;;;;;;;;;;4967547;28;20743;-68
2023/07/21 08:26:55;;;;;;;2.00;1.03;;;;;;;;;;4967300;28;20200;-72
2023/07/21 08:29:21;;;;;;;2.83;1.30;;;;;;;;;;4930421;29;20230;-70
2023/07/21 08:32:06;;;;;;;4.33;1.10;;;;;;;;;;4961824;28;20196;-68
2023/07/21 08:34:33;;;;;;;4.10;1.30;;;;;;;;;;4950604;28;20185;-72
2023/07/21 08:37:00;;;;;;;2.93;1.20;;;;;;;;;;4949627;28;20206;-69
2023/07/21 08:39:27;;;;;;;3.40;1.13;;;;;;;;;;4967412;28;20196;-69
2023/07/21 08:41:54;;;;;;;1.67;1.20;;;;;;;;;;4970759;28;20186;-71
2023/07/21 08:44:22;;;;;;;2.47;1.20;;;;;;;;;;4953770;28;20311;-74
2023/07/21 08:46:50;;;;;;;4.77;1.20;;;;;;;;;;4954337;28;20212;-70
2023/07/21 08:49:18;;;;;;;2.53;1.27;;;;;;;;;;4971080;28;20213;-69
2023/07/21 08:51:45;;;;;;;3.73;1.30;;;;;;;;;;4970322;28;20295;-69
2023/07/21 08:54:13;;;;;;;2.17;1.00;;;;;;;;;;4938107;28;20208;-68
2023/07/21 08:56:40;;;;;;;2.80;1.20;;;;;;;;;;4970486;28;20260;-69
2023/07/21 08:59:06;;;;;;;4.00;1.30;;;;;;;;;;4953317;28;20692;-69
2023/07/21 09:01:33;;;;;;;2.50;1.30;;;;;;;;;;4971057;28;20265;-68
2023/07/21 09:04:01;;;;;;;3.07;1.20;;;;;;;;;;4953359;28;20526;-68
2023/07/21 09:06:28;;;;;;;2.87;1.40;;;;;;;;;;4970598;28;20189;-68
2023/07/21 09:08:56;;;;;;;3.50;1.47;;;;;;;;;;4970773;28;20192;-69
2023/07/21 09:11:24;;;;;;;4.03;1.57;;;;;;;;;;4953068;28;21105;-68
2023/07/21 09:13:53;;;;;;;3.53;1.60;;;;;;;;;;4954177;28;20190;-69
2023/07/21 09:16:20;;;;;;;3.27;1.63;;;;;;;;;;4953514;28;20200;-68
2023/07/21 09:18:47;;;;;;;3.23;1.60;;;;;;;;;;4969939;28;20272;-68
2023/07/21 09:21:21;;;;;;;3.43;1.70;;;;;;;;;;4969552;28;20196;-69
2023/07/21 09:23:48;;;;;;;5.07;1.83;;;;;;;;;;4953242;28;20194;-67
2023/07/21 09:26:15;;;;;;;4.80;1.60;;;;;;;;;;4970177;28;20204;-70
2023/07/21 09:28:43;;;;;;;2.23;1.27;;;;;;;;;;4944160;28;21018;-71
2023/07/21 09:31:11;;;;;;;1.63;1.13;;;;;;;;;;4970539;28;20190;-70
2023/07/21 09:33:44;;;;;;;4.03;1.00;;;;;;;;;;4954090;28;20193;-69
2023/07/21 09:36:12;;;;;;;4.17;1.20;;;;;;;;;;4970478;28;20209;-68
2023/07/21 09:38:39;;;;;;;1.47;0.97;;;;;;;;;;4952490;28;20229;-68
2023/07/21 09:41:07;;;;;;;2.53;1.20;;;;;;;;;;4969558;28;20200;-69
2023/07/21 09:43:34;;;;;;;2.07;1.10;;;;;;;;;;4937732;28;20304;-69
2023/07/21 09:46:18;;;;;;;2.97;1.43;;;;;;;;;;4970028;28;20181;-69
2023/07/21 09:48:47;;;;;;;2.83;1.37;;;;;;;;;;4970408;28;20255;-69
2023/07/21 09:51:14;;;;;;;2.77;1.47;;;;;;;;;;4968689;28;20193;-70
2023/07/21 09:53:42;;;;;;;6.17;1.30;;;;;;;;;;4937178;28;20194;-69
2023/07/21 09:56:11;;;;;;;4.00;1.57;;;;;;;;;;4953035;28;20253;-70
2023/07/21 09:58:40;;;;;;;2.30;1.43;;;;;;;;;;4970401;28;20292;-71
2023/07/21 10:01:07;;;;;;;3.00;1.33;;;;;;;;;;4969810;28;20201;-71
2023/07/21 10:03:37;;;;;;;3.03;1.60;;;;;;;;;;4953871;28;20199;-71
2023/07/21 10:06:04;;;;;;;2.73;1.30;;;;;;;;;;4933176;29;20197;-71
2023/07/21 10:08:33;;;;;;;2.80;1.40;;;;;;;;;;4958394;28;20197;-71
2023/07/21 10:11:00;;;;;;;2.97;1.60;;;;;;;;;;4946329;28;20221;-71
2023/07/21 10:13:27;;;;;;;3.17;1.33;;;;;;;;;;4952408;28;20198;-72
2023/07/21 10:16:01;;;;;;;3.00;1.40;;;;;;;;;;4932920;29;20204;-71
2023/07/21 10:19:04;;;;;;;1.90;1.27;;;;;;;;;;4948759;28;20202;-70
2023/07/21 10:21:47;;;;;;;3.40;1.80;;;;;;;;;;4969133;28;20248;-70
2023/07/21 10:24:32;;;;;;;2.70;1.30;;;;;;;;;;4969416;28;20225;-69
2023/07/21 10:27:03;;;;;;;3.77;1.40;;;;;;;;;;4968865;28;20194;-72
2023/07/21 10:29:30;;;;;;;4.03;1.23;;;;;;;;;;4959891;28;20597;-71
2023/07/21 10:31:57;;;;;;;2.07;1.00;;;;;;;;;;4969358;28;20193;-72
2023/07/21 10:34:25;;;;;;;3.07;1.50;;;;;;;;;;4969192;28;20288;-71
2023/07/21 10:36:53;;;;;;;4.50;1.43;;;;;;;;;;4968250;28;20186;-72
2023/07/21 10:39:21;;;;;;;2.57;1.40;;;;;;;;;;4947347;28;20253;-68
2023/07/21 10:41:52;;;;;;;3.70;1.50;;;;;;;;;;4964436;28;20193;-68
2023/07/21 10:44:19;;;;;;;2.47;1.40;;;;;;;;;;4951583;28;20221;-69
2023/07/21 10:46:47;;;;;;;2.00;1.40;;;;;;;;;;4968497;28;20264;-69
2023/07/21 10:49:14;;;;;;;2.17;1.20;;;;;;;;;;4967941;28;20197;-70
2023/07/21 10:51:41;;;;;;;1.37;1.00;;;;;;;;;;4951427;28;20205;-69
2023/07/21 10:54:08;;;;;;;4.33;1.30;;;;;;;;;;4951619;28;20185;-69
2023/07/21 10:56:38;;;;;;;1.10;1.00;;;;;;;;;;4966331;28;20747;-69
2023/07/21 10:59:05;;;;;;;1.83;0.80;;;;;;;;;;4950716;28;20245;-70
2023/07/21 11:01:32;;;;;;;1.90;0.90;;;;;;;;;;4968098;28;20209;-69
2023/07/21 11:04:00;;;;;;;2.13;1.00;;;;;;;;;;4967802;28;20193;-71
2023/07/21 11:06:27;;;;;;;1.87;1.10;;;;;;;;;;4967650;28;20236;-70
2023/07/21 11:08:54;;;;;;;2.10;1.03;;;;;;;;;;4942510;28;20205;-70
2023/07/21 11:11:21;;;;;;;3.83;1.33;;;;;;;;;;4962618;28;20275;-71
2023/07/21 11:13:48;;;;;;;0.93;0.67;;;;;;;;;;4970607;28;20221;-70
2023/07/21 11:16:17;;;;;;;1.17;0.70;;;;;;;;;;4968663;28;20221;-70
2023/07/21 11:18:44;;;;;;;1.87;0.73;;;;;;;;;;4967348;28;20213;-70
2023/07/21 11:21:11;;;;;;;1.13;0.80;;;;;;;;;;4969837;28;20210;-71
2023/07/21 11:23:38;;;;;;;2.23;0.80;;;;;;;;;;4969674;28;20546;-70
2023/07/21 11:26:10;;;;;;;2.10;0.80;;;;;;;;;;4969422;28;20194;-70
2023/07/21 11:28:40;;;;;;;1.63;0.87;;;;;;;;;;4953541;28;20201;-70
2023/07/21 11:31:12;;;;;;;0.60;0.60;;;;;;;;;;4949310;29;20695;-70
2023/07/21 11:33:58;;;;;;;0.50;0.50;;;;;;;;;;4969995;28;20192;-69
2023/07/21 11:36:27;;;;;;;1.07;0.70;;;;;;;;;;4951896;28;20809;-69
2023/07/21 11:39:04;;;;;;;0.67;0.67;;;;;;;;;;4952546;28;20229;-68
2023/07/21 11:41:36;;;;;;;1.27;0.70;;;;;;;;;;4969438;28;20193;-68
2023/07/21 11:44:05;;;;;;;1.00;0.70;;;;;;;;;;4969083;28;20238;-68
2023/07/21 11:46:33;;;;;;;1.67;0.70;;;;;;;;;;4952643;28;20194;-69
2023/07/21 11:49:00;;;;;;;1.20;0.70;;;;;;;;;;4969162;28;20195;-69
2023/07/21 11:51:27;;;;;;;1.00;0.60;;;;;;;;;;4968950;28;20623;-68
2023/07/21 11:53:58;;;;;;;0.60;0.60;;;;;;;;;;4969272;28;20794;-69
2023/07/21 11:56:24;;;;;;;2.07;0.70;;;;;;;;;;4969152;28;20205;-69
2023/07/21 11:59:09;;;;;;;0.97;0.60;;;;;;;;;;4943466;28;20664;-68
2023/07/21 12:01:35;;;;;;;1.37;0.80;;;;;;;;;;4969256;28;20553;-68
2023/07/21 12:04:03;;;;;;;1.13;0.70;;;;;;;;;;4969086;28;20286;-68
2023/07/21 12:06:30;;;;;;;1.70;0.80;;;;;;;;;;4950048;28;20197;-69
2023/07/21 12:08:57;;;;;;;1.27;0.63;;;;;;;;;;4969364;28;20216;-69
2023/07/21 12:11:24;;;;;;;0.70;0.70;;;;;;;;;;4968139;28;20213;-67
2023/07/21 12:13:51;;;;;;;1.67;0.90;;;;;;;;;;4948366;29;20719;-67
2023/07/21 12:16:18;;;;;;;2.43;0.70;;;;;;;;;;4964217;28;20201;-67
2023/07/21 12:18:45;;;;;;;1.40;0.80;;;;;;;;;;4969145;28;20232;-67
2023/07/21 12:21:12;;;;;;;1.70;0.93;;;;;;;;;;4951822;28;20538;-67
2023/07/21 12:23:39;;;;;;;1.73;0.80;;;;;;;;;;4969103;28;21001;-67
2023/07/21 12:26:23;;;;;;;3.40;1.00;;;;;;;;;;4968247;28;20189;-67
2023/07/21 12:28:50;;;;;;;1.80;1.07;;;;;;;;;;4969106;28;20202;-67
2023/07/21 12:31:17;;;;;;;1.83;1.20;;;;;;;;;;4969134;28;20194;-66
2023/07/21 12:33:44;;;;;;;2.17;0.97;;;;;;;;;;4968470;28;20194;-67
2023/07/21 12:36:12;;;;;;;2.20;0.97;;;;;;;;;;4969178;28;20195;-67
2023/07/21 12:38:38;;;;;;;2.47;0.73;;;;;;;;;;4968917;28;20217;-67
2023/07/21 12:41:05;;;;;;;2.47;1.07;;;;;;;;;;4935748;28;20249;-67
2023/07/21 12:43:32;;;;;;;2.97;1.03;;;;;;;;;;4968867;28;20247;-67
2023/07/21 12:46:00;;;;;;;1.63;0.80;;;;;;;;;;4969227;28;20217;-67
2023/07/21 12:48:28;;;;;;;3.33;1.00;;;;;;;;;;4968702;28;20281;-67
2023/07/21 12:50:55;;;;;;;1.30;0.90;;;;;;;;;;4968774;28;20201;-67
2023/07/21 12:53:22;;;;;;;2.27;0.90;;;;;;;;;;4968636;28;20248;-67
2023/07/21 12:55:51;;;;;;;1.13;1.03;;;;;;;;;;4969198;28;20252;-67
2023/07/21 12:58:18;;;;;;;1.27;0.93;;;;;;;;;;4968594;28;20200;-67
2023/07/21 13:00:45;;;;;;;1.50;1.00;;;;;;;;;;4968579;28;20204;-68
2023/07/21 13:03:12;;;;;;;2.77;0.87;;;;;;;;;;4968811;28;20190;-67
2023/07/21 13:05:39;;;;;;;1.97;0.97;;;;;;;;;;4948480;29;20195;-67
2023/07/21 13:08:24;;;;;;;2.83;1.10;;;;;;;;;;4964815;28;20185;-67
2023/07/21 13:10:51;;;;;;;1.83;0.83;;;;;;;;;;4968917;28;20283;-68
2023/07/21 13:13:18;;;;;;;1.63;0.80;;;;;;;;;;4968243;28;20200;-67
2023/07/21 13:15:46;;;;;;;2.57;1.10;;;;;;;;;;4968313;28;20224;-67
2023/07/21 13:18:12;;;;;;;2.83;1.00;;;;;;;;;;4950602;28;20192;-67
2023/07/21 13:20:56;;;;;;;1.47;1.10;;;;;;;;;;4966498;28;20185;-68
2023/07/21 13:23:23;;;;;;;2.30;0.90;;;;;;;;;;4954823;28;20196;-67
2023/07/21 13:26:08;;;;;;;2.53;1.30;;;;;;;;;;4955456;28;20541;-68
2023/07/21 13:28:34;;;;;;;2.93;1.10;;;;;;;;;;4956880;28;20205;-66
2023/07/21 13:31:01;;;;;;;1.40;1.00;;;;;;;;;;4969378;28;20206;-67
2023/07/21 13:33:30;;;;;;;1.43;1.10;;;;;;;;;;4968816;28;20221;-68
2023/07/21 13:35:56;;;;;;;1.83;1.20;;;;;;;;;;4948955;28;20198;-68
2023/07/21 13:38:24;;;;;;;2.63;1.20;;;;;;;;;;4963680;28;20219;-70
2023/07/21 13:40:51;;;;;;;1.90;1.20;;;;;;;;;;4936450;28;20201;-67
2023/07/21 13:43:18;;;;;;;2.70;1.20;;;;;;;;;;4969120;28;20232;-67
2023/07/21 13:45:45;;;;;;;1.70;1.00;;;;;;;;;;4971747;28;20614;-67
2023/07/21 13:48:13;;;;;;;1.63;1.20;;;;;;;;;;4954740;28;20258;-68
2023/07/21 13:50:40;;;;;;;1.90;1.10;;;;;;;;;;4971565;28;20195;-67
2023/07/21 13:53:07;;;;;;;3.00;1.57;;;;;;;;;;4950758;29;20727;-70
2023/07/21 13:55:33;;;;;;;2.00;1.17;;;;;;;;;;4970033;28;20208;-68
2023/07/21 13:58:00;;;;;;;4.13;1.40;;;;;;;;;;4971835;28;20200;-67
2023/07/21 14:00:44;;;;;;;1.60;1.30;;;;;;;;;;4956920;28;20236;-67
2023/07/21 14:03:11;;;;;;;1.60;1.00;;;;;;;;;;4971790;28;20225;-69
2023/07/21 14:05:55;;;;;;;4.17;1.40;;;;;;;;;;4971779;28;20180;-68
2023/07/21 14:08:23;;;;;;;1.43;1.20;;;;;;;;;;4954139;28;20187;-68
2023/07/21 14:11:08;;;;;;;3.10;1.30;;;;;;;;;;4971488;28;20178;-68
2023/07/21 14:13:35;;;;;;;3.37;1.33;;;;;;;;;;4971865;28;20267;-68
2023/07/21 14:16:02;;;;;;;2.57;1.17;;;;;;;;;;4971283;28;20678;-68
2023/07/21 14:18:32;;;;;;;4.53;1.30;;;;;;;;;;4971441;28;20189;-68
2023/07/21 14:20:59;;;;;;;3.20;1.40;;;;;;;;;;4971778;28;20198;-68
2023/07/21 14:23:43;;;;;;;3.93;1.50;;;;;;;;;;4971227;28;20283;-68
2023/07/21 14:26:09;;;;;;;2.50;1.60;;;;;;;;;;4971360;28;20194;-68
2023/07/21 14:28:36;;;;;;;4.23;1.37;;;;;;;;;;4954731;28;20649;-68
2023/07/21 14:31:06;;;;;;;2.17;1.57;;;;;;;;;;4970937;28;20197;-68
2023/07/21 14:33:33;;;;;;;2.13;1.40;;;;;;;;;;4971102;28;20190;-68
2023/07/21 14:36:17;;;;;;;3.27;1.40;;;;;;;;;;4956890;28;20177;-68
2023/07/21 14:38:49;;;;;;;3.57;1.40;;;;;;;;;;4970162;28;20215;-68
2023/07/21 14:41:34;;;;;;;2.90;1.50;;;;;;;;;;4971152;28;20173;-68
2023/07/21 14:44:01;;;;;;;2.20;1.33;;;;;;;;;;4970770;28;20283;-68
2023/07/21 14:46:28;;;;;;;2.57;1.80;;;;;;;;;;4971446;28;20193;-68
2023/07/21 14:48:55;;;;;;;3.60;1.73;;;;;;;;;;4970731;28;20190;-67
2023/07/21 14:51:22;;;;;;;3.77;1.63;;;;;;;;;;4970599;28;20361;-68
2023/07/21 14:54:08;;;;;;;3.20;1.60;;;;;;;;;;4970907;28;20308;-68
2023/07/21 14:56:36;;;;;;;2.13;1.43;;;;;;;;;;4970750;28;20185;-69
2023/07/21 14:59:20;;;;;;;2.73;1.73;;;;;;;;;;4970257;28;20908;-69
2023/07/21 15:01:47;;;;;;;1.80;1.40;;;;;;;;;;4970935;28;20178;-69
2023/07/21 15:04:14;;;;;;;3.10;1.60;;;;;;;;;;4970512;28;20281;-69
2023/07/21 15:06:40;;;;;;;2.53;1.47;;;;;;;;;;4970556;28;20266;-70
2023/07/21 15:09:08;;;;;;;2.23;1.50;;;;;;;;;;4970182;28;20189;-70
2023/07/21 15:11:35;;;;;;;3.53;1.50;;;;;;;;;;4970277;28;20203;-70
2023/07/21 15:14:02;;;;;;;3.50;1.57;;;;;;;;;;4952633;28;20300;-70
2023/07/21 15:16:30;;;;;;;4.83;1.90;;;;;;;;;;4953317;28;20198;-69
2023/07/21 15:18:57;;;;;;;3.83;1.63;;;;;;;;;;4952805;28;20309;-70
2023/07/21 15:21:24;;;;;;;3.00;1.60;;;;;;;;;;4969710;28;20189;-70
2023/07/21 15:23:51;;;;;;;2.67;1.47;;;;;;;;;;4970042;28;20182;-69
2023/07/21 15:26:18;;;;;;;2.93;1.90;;;;;;;;;;4970005;28;20200;-69
2023/07/21 15:28:45;;;;;;;3.50;1.80;;;;;;;;;;4969930;28;20194;-69
2023/07/21 15:31:12;;;;;;;2.27;1.70;;;;;;;;;;4970105;28;20181;-69
2023/07/21 15:33:41;;;;;;;2.70;1.70;;;;;;;;;;4970283;28;20897;-69
2023/07/21 15:36:08;;;;;;;3.37;1.70;;;;;;;;;;4952878;28;20232;-70
2023/07/21 15:38:35;;;;;;;2.90;1.83;;;;;;;;;;4970028;28;20195;-69